West Payne, Texas
Current Conditions -  °F | °C
As of 7:15 PM on Thursday 18 Dec 2014 (Local Time) from KARM Reporting Station
Light Rain Light Rain  
Wind Chill: 65°   Ceiling: 3700
Heat Index: 65°   Visibility: 10mi
Dew Point: 61°   Wind: 8mph
Humidity: 85%   Direction: 30°NNE
Pressure: 30.04"   Gusts: NA
Location:  29.1916°N, 96.2212°W
Report Text: KARM 190115Z AUTO 03007KT 10SM -RA SCT017 SCT030 OVC037 19/16 A3004 RMK AO2 T01850160
Loading
Personal Weather Stations






























Interactive Weather Map New forecast layout! Learn more

10-Day Weather Forecast

Advertisements
Track Severe Weather on mobile